Time;durP1;ratioP1;P1;durP2;ratioP2;P2;SDS_P1;SDS_P2;PMS_P1;PMS_P2;Temp;Humidity;BMP_temperature;BMP_pressure;BME280_temperature;BME280_humidity;BME280_pressure;Samples;Min_cycle;Max_cycle;Signal;HPM_P1;HPM_P2
2022/04/04 00:02:26;;;;;;;71.47;34.27;;;;;;;;;;5095601;28;20268;-60
2022/04/04 00:04:54;;;;;;;57.67;23.70;;;;;;;;;;5095440;28;20202;-61
2022/04/04 00:07:21;;;;;;;34.83;16.33;;;;;;;;;;5095277;28;20667;-60
2022/04/04 00:09:47;;;;;;;48.03;18.83;;;;;;;;;;5095438;28;20209;-60
2022/04/04 00:12:15;;;;;;;46.23;18.33;;;;;;;;;;5095253;28;20199;-60
2022/04/04 00:14:42;;;;;;;45.10;18.90;;;;;;;;;;5094991;28;20202;-60
2022/04/04 00:17:10;;;;;;;38.23;16.90;;;;;;;;;;5095563;28;20259;-60
2022/04/04 00:19:37;;;;;;;62.63;20.43;;;;;;;;;;5095091;28;20252;-60
2022/04/04 00:22:04;;;;;;;310.30;139.70;;;;;;;;;;5095199;28;20209;-60
2022/04/04 00:24:32;;;;;;;109.43;57.43;;;;;;;;;;5095351;28;20198;-60
2022/04/04 00:26:59;;;;;;;43.63;19.90;;;;;;;;;;5094658;28;20263;-60
2022/04/04 00:29:26;;;;;;;56.00;21.73;;;;;;;;;;5094727;28;20676;-60
2022/04/04 00:31:53;;;;;;;51.03;19.40;;;;;;;;;;5095044;28;20215;-60
2022/04/04 00:34:21;;;;;;;45.40;19.30;;;;;;;;;;5094920;28;20209;-60
2022/04/04 00:36:48;;;;;;;48.70;20.07;;;;;;;;;;5095042;28;20195;-60
2022/04/04 00:39:19;;;;;;;50.73;19.70;;;;;;;;;;5094850;28;20216;-60
2022/04/04 00:41:47;;;;;;;51.53;19.27;;;;;;;;;;5095250;28;20187;-60
2022/04/04 00:44:15;;;;;;;113.40;34.67;;;;;;;;;;5094599;28;20542;-60
2022/04/04 00:46:42;;;;;;;101.43;30.73;;;;;;;;;;5094801;28;20217;-60
2022/04/04 00:49:10;;;;;;;48.30;19.60;;;;;;;;;;5094712;28;20574;-60
2022/04/04 00:51:37;;;;;;;53.97;21.63;;;;;;;;;;5094738;28;20237;-60
2022/04/04 00:54:05;;;;;;;48.97;18.77;;;;;;;;;;5094923;28;20213;-60
2022/04/04 00:56:34;;;;;;;44.97;19.07;;;;;;;;;;5094599;28;20643;-60
2022/04/04 00:59:03;;;;;;;47.90;18.17;;;;;;;;;;5094658;28;20202;-60
2022/04/04 01:01:32;;;;;;;35.83;15.30;;;;;;;;;;5095120;28;20282;-60
2022/04/04 01:04:00;;;;;;;46.83;18.77;;;;;;;;;;5094786;28;20275;-60
2022/04/04 01:06:27;;;;;;;117.97;47.67;;;;;;;;;;5094736;28;20226;-60
2022/04/04 01:08:54;;;;;;;43.60;19.17;;;;;;;;;;5094442;28;20646;-60
2022/04/04 01:11:21;;;;;;;45.20;19.03;;;;;;;;;;5093575;28;20237;-60
2022/04/04 01:13:49;;;;;;;34.07;16.10;;;;;;;;;;5094939;28;20198;-60
2022/04/04 01:16:16;;;;;;;41.30;17.97;;;;;;;;;;5094600;28;20299;-60
2022/04/04 01:18:44;;;;;;;31.63;15.27;;;;;;;;;;5094446;28;20210;-60
2022/04/04 01:21:11;;;;;;;35.20;16.47;;;;;;;;;;5093503;28;20195;-60
2022/04/04 01:23:41;;;;;;;50.03;19.07;;;;;;;;;;5094423;28;20643;-61
2022/04/04 01:26:10;;;;;;;40.37;16.47;;;;;;;;;;5094332;28;20271;-60
2022/04/04 01:28:38;;;;;;;67.93;31.00;;;;;;;;;;5094452;28;20209;-60
2022/04/04 01:31:05;;;;;;;57.17;20.07;;;;;;;;;;5093584;28;20215;-60
2022/04/04 01:33:33;;;;;;;47.73;18.87;;;;;;;;;;5094222;28;20544;-60
2022/04/04 01:36:00;;;;;;;33.07;15.50;;;;;;;;;;5094979;28;20219;-60
2022/04/04 01:38:27;;;;;;;35.33;16.90;;;;;;;;;;5094474;28;20223;-60
2022/04/04 01:40:55;;;;;;;41.47;16.50;;;;;;;;;;5097328;28;20202;-60
2022/04/04 01:43:22;;;;;;;60.40;20.23;;;;;;;;;;5098209;28;20206;-60
2022/04/04 01:48:36;;;;;;;152.57;66.20;;;;;;;;;;5098558;28;20202;-60
2022/04/04 01:51:04;;;;;;;57.90;22.50;;;;;;;;;;5097928;28;20229;-60
2022/04/04 01:53:33;;;;;;;59.43;21.57;;;;;;;;;;5097691;28;20652;-61
2022/04/04 01:56:03;;;;;;;35.07;15.60;;;;;;;;;;5097803;28;20293;-60
2022/04/04 01:58:31;;;;;;;40.57;16.27;;;;;;;;;;5098079;28;20215;-60
2022/04/04 02:01:01;;;;;;;27.60;13.37;;;;;;;;;;5098023;28;20268;-60
2022/04/04 02:03:31;;;;;;;41.43;16.80;;;;;;;;;;5097880;28;20294;-61
2022/04/04 02:06:02;;;;;;;30.37;13.93;;;;;;;;;;5097616;28;20625;-60
2022/04/04 02:08:31;;;;;;;162.63;77.07;;;;;;;;;;5097537;28;20226;-61
2022/04/04 02:10:59;;;;;;;38.40;17.13;;;;;;;;;;5097368;28;20230;-60
2022/04/04 02:13:27;;;;;;;35.17;15.77;;;;;;;;;;5097262;28;20205;-60
2022/04/04 02:15:57;;;;;;;27.03;14.00;;;;;;;;;;5097179;28;20217;-60
2022/04/04 02:18:24;;;;;;;30.53;12.87;;;;;;;;;;5097362;28;20637;-60
2022/04/04 02:20:52;;;;;;;29.33;13.60;;;;;;;;;;5097311;28;20203;-60
2022/04/04 02:23:20;;;;;;;25.07;12.77;;;;;;;;;;5097206;28;20215;-60
2022/04/04 02:25:49;;;;;;;28.40;12.30;;;;;;;;;;5097324;28;20585;-60
2022/04/04 02:28:16;;;;;;;24.87;12.17;;;;;;;;;;5097018;28;20194;-60
2022/04/04 02:30:46;;;;;;;52.30;23.07;;;;;;;;;;5097450;28;20546;-60
2022/04/04 02:33:15;;;;;;;29.00;13.17;;;;;;;;;;5097116;28;20536;-60
2022/04/04 02:35:43;;;;;;;26.77;12.03;;;;;;;;;;5097190;28;20213;-60
2022/04/04 02:38:11;;;;;;;29.33;13.37;;;;;;;;;;5097086;28;20289;-61
2022/04/04 02:40:40;;;;;;;33.20;14.10;;;;;;;;;;5097553;28;20206;-61
2022/04/04 02:43:08;;;;;;;25.97;11.60;;;;;;;;;;5096673;28;20206;-60
2022/04/04 02:45:36;;;;;;;29.97;12.07;;;;;;;;;;5097028;28;20198;-60
2022/04/04 02:48:03;;;;;;;26.10;12.00;;;;;;;;;;5096573;28;20218;-60
2022/04/04 02:50:30;;;;;;;168.03;64.43;;;;;;;;;;5096168;28;20198;-60
2022/04/04 02:52:57;;;;;;;38.03;18.50;;;;;;;;;;5096704;28;20242;-60
2022/04/04 02:58:24;;;;;;;33.80;13.40;;;;;;;;;;5074037;28;20685;-61
2022/04/04 03:00:51;;;;;;;29.03;11.93;;;;;;;;;;5096421;28;20570;-60
2022/04/04 03:03:18;;;;;;;43.07;14.77;;;;;;;;;;5096192;28;20297;-60
2022/04/04 03:05:46;;;;;;;32.90;13.70;;;;;;;;;;5096466;28;20213;-61
2022/04/04 03:08:13;;;;;;;30.27;12.87;;;;;;;;;;5096364;28;20226;-60
2022/04/04 03:10:40;;;;;;;27.87;11.60;;;;;;;;;;5096171;28;20271;-60
2022/04/04 03:13:08;;;;;;;39.10;18.07;;;;;;;;;;5096418;28;20203;-60
2022/04/04 03:15:35;;;;;;;54.80;17.73;;;;;;;;;;5096318;28;20205;-61
2022/04/04 03:18:03;;;;;;;37.53;13.87;;;;;;;;;;5095978;28;20289;-60
2022/04/04 03:20:31;;;;;;;33.53;13.13;;;;;;;;;;5096269;28;20195;-61
2022/04/04 03:23:00;;;;;;;38.57;14.17;;;;;;;;;;5096506;28;20218;-60
2022/04/04 03:25:27;;;;;;;32.30;12.07;;;;;;;;;;5095835;28;20213;-60
2022/04/04 03:27:55;;;;;;;28.20;11.63;;;;;;;;;;5095716;28;20199;-61
2022/04/04 03:30:32;;;;;;;25.20;11.37;;;;;;;;;;5102874;28;20257;-62
2022/04/04 03:32:59;;;;;;;21.23;9.47;;;;;;;;;;5109012;28;20554;-61
2022/04/04 03:35:29;;;;;;;87.67;40.53;;;;;;;;;;5109799;28;20202;-62
2022/04/04 03:37:58;;;;;;;26.93;11.77;;;;;;;;;;5098416;28;20194;-62
2022/04/04 03:40:26;;;;;;;18.17;9.10;;;;;;;;;;5095598;28;20221;-60
2022/04/04 03:42:54;;;;;;;25.10;10.40;;;;;;;;;;5095506;28;20576;-60
2022/04/04 03:45:22;;;;;;;17.63;9.10;;;;;;;;;;5095355;28;20206;-62
2022/04/04 03:47:50;;;;;;;25.43;10.47;;;;;;;;;;5102948;28;20208;-60
2022/04/04 03:50:17;;;;;;;25.83;10.70;;;;;;;;;;5106927;28;20252;-60
2022/04/04 03:52:47;;;;;;;17.27;8.77;;;;;;;;;;5101947;28;20220;-59
2022/04/04 03:55:16;;;;;;;21.37;10.60;;;;;;;;;;5097852;28;20613;-60
2022/04/04 03:57:44;;;;;;;29.27;12.47;;;;;;;;;;5100788;28;20301;-61
2022/04/04 04:00:12;;;;;;;18.00;8.60;;;;;;;;;;5111045;28;20229;-60
2022/04/04 04:02:40;;;;;;;29.37;12.10;;;;;;;;;;5104141;28;20343;-61
2022/04/04 04:05:12;;;;;;;24.37;14.13;;;;;;;;;;5105222;28;20529;-60
2022/04/04 04:07:40;;;;;;;21.10;10.20;;;;;;;;;;5108097;28;20289;-61
2022/04/04 04:10:11;;;;;;;22.30;9.73;;;;;;;;;;5094445;28;20237;-60
2022/04/04 04:12:42;;;;;;;119.20;46.67;;;;;;;;;;5113618;28;20234;-60
2022/04/04 04:15:12;;;;;;;30.63;16.03;;;;;;;;;;5105939;28;20260;-60
2022/04/04 04:17:39;;;;;;;25.33;12.10;;;;;;;;;;5106512;28;20305;-61
2022/04/04 04:20:19;;;;;;;25.73;12.57;;;;;;;;;;5104811;27;20225;-60
2022/04/04 04:22:48;;;;;;;33.50;13.90;;;;;;;;;;5113370;28;20235;-59
2022/04/04 04:25:15;;;;;;;21.53;11.50;;;;;;;;;;5100424;27;20676;-60
2022/04/04 04:27:43;;;;;;;31.17;12.20;;;;;;;;;;5114331;28;20226;-68
2022/04/04 04:30:10;;;;;;;29.60;13.13;;;;;;;;;;5114032;28;20275;-54
2022/04/04 04:32:38;;;;;;;28.30;12.70;;;;;;;;;;5114118;27;20241;-61
2022/04/04 04:35:06;;;;;;;187.23;71.67;;;;;;;;;;5114404;28;20227;-62
2022/04/04 04:37:33;;;;;;;108.00;58.03;;;;;;;;;;5114279;27;20221;-62
2022/04/04 04:40:01;;;;;;;49.83;25.60;;;;;;;;;;5113840;28;20228;-65
2022/04/04 04:42:27;;;;;;;29.23;15.97;;;;;;;;;;5113792;27;20222;-65
2022/04/04 04:44:55;;;;;;;24.07;12.60;;;;;;;;;;5113878;28;20676;-62
2022/04/04 04:47:22;;;;;;;21.57;10.27;;;;;;;;;;5112071;27;20230;-65
2022/04/04 04:49:50;;;;;;;33.00;15.97;;;;;;;;;;5102300;28;20317;-64
2022/04/04 04:52:17;;;;;;;34.33;17.43;;;;;;;;;;5091663;28;20249;-61
2022/04/04 04:54:44;;;;;;;26.00;12.30;;;;;;;;;;5092245;28;20226;-61
2022/04/04 04:57:11;;;;;;;63.57;29.27;;;;;;;;;;5112102;28;20304;-69
2022/04/04 04:59:38;;;;;;;39.67;22.93;;;;;;;;;;5110668;28;20263;-66
2022/04/04 05:02:06;;;;;;;24.77;13.27;;;;;;;;;;5112796;28;20213;-65
2022/04/04 05:04:33;;;;;;;49.93;25.00;;;;;;;;;;5113339;28;20221;-64
2022/04/04 05:07:00;;;;;;;49.47;28.93;;;;;;;;;;5113623;28;20577;-64
2022/04/04 05:09:27;;;;;;;24.63;14.27;;;;;;;;;;5113650;28;20198;-62
2022/04/04 05:11:54;;;;;;;26.43;13.50;;;;;;;;;;5113432;28;20210;-64
2022/04/04 05:14:22;;;;;;;28.30;14.87;;;;;;;;;;5115695;28;20213;-61
2022/04/04 05:16:49;;;;;;;28.80;14.40;;;;;;;;;;5117756;27;20194;-63
2022/04/04 05:19:19;;;;;;;35.27;16.33;;;;;;;;;;5117244;28;20314;-61
2022/04/04 05:21:46;;;;;;;50.83;26.43;;;;;;;;;;5117724;28;20554;-64
2022/04/04 05:24:14;;;;;;;29.00;14.00;;;;;;;;;;5117194;28;20194;-64
2022/04/04 05:26:41;;;;;;;28.03;14.93;;;;;;;;;;5117704;28;20198;-65
2022/04/04 05:29:08;;;;;;;61.87;40.53;;;;;;;;;;5117274;28;20224;-65
2022/04/04 05:31:36;;;;;;;64.57;33.73;;;;;;;;;;5117290;28;20612;-65
2022/04/04 05:34:07;;;;;;;42.67;23.73;;;;;;;;;;5117655;28;20197;-65
2022/04/04 05:36:35;;;;;;;55.73;29.77;;;;;;;;;;5118550;28;20210;-64
2022/04/04 05:39:04;;;;;;;34.23;16.67;;;;;;;;;;5118376;28;20288;-65
2022/04/04 05:41:31;;;;;;;30.00;13.30;;;;;;;;;;5118568;28;20232;-65
2022/04/04 05:43:59;;;;;;;49.77;23.57;;;;;;;;;;5119116;28;20202;-64
2022/04/04 05:46:25;;;;;;;27.23;12.67;;;;;;;;;;5118144;28;20212;-65
2022/04/04 05:48:53;;;;;;;28.97;14.07;;;;;;;;;;5118190;28;20703;-64
2022/04/04 05:51:20;;;;;;;27.17;11.60;;;;;;;;;;5118402;28;20198;-64
2022/04/04 05:53:47;;;;;;;27.77;12.03;;;;;;;;;;5118198;27;20236;-64
2022/04/04 05:56:14;;;;;;;25.17;12.43;;;;;;;;;;5118219;28;20585;-65
2022/04/04 05:59:00;;;;;;;21.20;10.83;;;;;;;;;;5118225;28;20243;-65
2022/04/04 06:01:27;;;;;;;15.83;8.90;;;;;;;;;;5117995;28;20213;-65
2022/04/04 06:03:54;;;;;;;24.50;10.50;;;;;;;;;;5118116;28;20617;-65
2022/04/04 06:06:21;;;;;;;26.13;12.87;;;;;;;;;;5117870;28;20198;-65
2022/04/04 06:08:48;;;;;;;18.73;10.33;;;;;;;;;;5118061;28;20267;-65
2022/04/04 06:11:15;;;;;;;24.30;10.00;;;;;;;;;;5118026;28;20198;-65
2022/04/04 06:13:42;;;;;;;17.67;9.73;;;;;;;;;;5117932;28;20233;-66
2022/04/04 06:16:10;;;;;;;17.53;8.40;;;;;;;;;;5117556;28;20202;-65
2022/04/04 06:18:37;;;;;;;20.03;8.70;;;;;;;;;;5117899;28;20206;-65
2022/04/04 06:21:04;;;;;;;22.23;10.43;;;;;;;;;;5117833;28;20213;-65
2022/04/04 06:23:33;;;;;;;19.47;8.40;;;;;;;;;;5117591;28;20235;-65
2022/04/04 06:26:01;;;;;;;24.93;11.63;;;;;;;;;;5117024;28;20198;-65
2022/04/04 06:28:31;;;;;;;40.73;20.00;;;;;;;;;;5117593;28;20201;-65
2022/04/04 06:30:58;;;;;;;31.83;15.53;;;;;;;;;;5117563;27;20197;-65
2022/04/04 06:33:26;;;;;;;21.63;9.73;;;;;;;;;;5117277;28;20252;-65
2022/04/04 06:35:54;;;;;;;20.90;9.43;;;;;;;;;;5117992;28;20202;-65
2022/04/04 06:38:21;;;;;;;20.20;9.00;;;;;;;;;;5117551;27;20278;-65
2022/04/04 06:40:49;;;;;;;30.03;13.13;;;;;;;;;;5117854;28;20206;-65
2022/04/04 06:43:19;;;;;;;15.83;7.93;;;;;;;;;;5117310;28;20198;-65
2022/04/04 06:45:47;;;;;;;15.77;8.37;;;;;;;;;;5117261;28;20202;-65
2022/04/04 06:48:14;;;;;;;23.03;9.57;;;;;;;;;;5117323;28;20201;-65
2022/04/04 06:50:42;;;;;;;52.87;19.87;;;;;;;;;;5116972;28;20648;-66
2022/04/04 06:53:10;;;;;;;44.50;23.50;;;;;;;;;;5117157;28;20226;-65
2022/04/04 06:55:44;;;;;;;20.27;10.20;;;;;;;;;;5116992;28;20681;-65
2022/04/04 06:58:11;;;;;;;18.13;9.80;;;;;;;;;;5117175;28;20639;-65
2022/04/04 07:00:39;;;;;;;16.17;8.27;;;;;;;;;;5116951;28;20541;-65
2022/04/04 07:03:08;;;;;;;22.70;10.83;;;;;;;;;;5117049;28;20529;-65
2022/04/04 07:05:41;;;;;;;19.97;9.17;;;;;;;;;;5117094;28;20185;-66
2022/04/04 07:08:09;;;;;;;20.97;9.63;;;;;;;;;;5117221;28;20262;-66
2022/04/04 07:10:37;;;;;;;18.90;8.20;;;;;;;;;;5116820;28;20198;-66
2022/04/04 07:13:05;;;;;;;17.20;9.60;;;;;;;;;;5116724;28;20256;-66
2022/04/04 07:15:33;;;;;;;85.03;39.07;;;;;;;;;;5116527;28;20547;-66
2022/04/04 07:18:00;;;;;;;19.73;9.90;;;;;;;;;;5116807;28;20572;-66
2022/04/04 07:20:27;;;;;;;21.03;9.80;;;;;;;;;;5115745;28;20213;-66
2022/04/04 07:22:54;;;;;;;21.87;10.60;;;;;;;;;;5115695;28;20205;-67
2022/04/04 07:25:22;;;;;;;22.17;9.93;;;;;;;;;;5116485;28;20208;-66
2022/04/04 07:27:49;;;;;;;23.37;9.50;;;;;;;;;;5116569;28;20202;-66
2022/04/04 07:30:18;;;;;;;18.07;9.73;;;;;;;;;;5116009;28;20230;-67
2022/04/04 07:32:47;;;;;;;22.50;10.43;;;;;;;;;;5116529;28;20229;-66
2022/04/04 07:35:15;;;;;;;23.70;10.83;;;;;;;;;;5116390;28;20202;-67
2022/04/04 07:37:44;;;;;;;42.53;20.80;;;;;;;;;;5115264;28;20635;-68
2022/04/04 07:40:14;;;;;;;17.80;9.07;;;;;;;;;;5111428;28;20267;-68
2022/04/04 07:42:44;;;;;;;42.83;14.47;;;;;;;;;;5106806;28;20199;-67
2022/04/04 07:45:13;;;;;;;31.00;12.23;;;;;;;;;;5095498;28;20207;-67
2022/04/04 07:47:42;;;;;;;27.87;12.70;;;;;;;;;;5095927;28;20697;-67
2022/04/04 07:50:13;;;;;;;25.67;11.60;;;;;;;;;;5095585;28;20544;-67
2022/04/04 07:52:40;;;;;;;251.00;107.70;;;;;;;;;;5095633;28;20223;-67
2022/04/04 07:55:09;;;;;;;131.27;62.87;;;;;;;;;;5095348;28;20629;-67
2022/04/04 07:57:37;;;;;;;28.40;13.80;;;;;;;;;;5095750;28;20198;-68
2022/04/04 08:00:07;;;;;;;26.47;12.80;;;;;;;;;;5095212;28;20632;-65
2022/04/04 08:02:34;;;;;;;25.90;12.37;;;;;;;;;;5095760;28;20597;-67
2022/04/04 08:05:02;;;;;;;23.57;12.90;;;;;;;;;;5095484;28;20195;-67
2022/04/04 08:07:29;;;;;;;26.53;12.63;;;;;;;;;;5094615;28;20203;-67
2022/04/04 08:09:57;;;;;;;23.20;12.40;;;;;;;;;;5095443;28;20198;-68
2022/04/04 08:12:28;;;;;;;28.23;13.30;;;;;;;;;;5095336;28;20612;-68
2022/04/04 08:14:55;;;;;;;22.47;12.00;;;;;;;;;;5095334;28;20218;-68
2022/04/04 08:17:23;;;;;;;47.13;25.03;;;;;;;;;;5095317;28;20220;-67
2022/04/04 08:19:50;;;;;;;27.40;14.00;;;;;;;;;;5095272;28;20230;-68
2022/04/04 08:22:18;;;;;;;24.90;12.97;;;;;;;;;;5094998;28;20217;-67
2022/04/04 08:24:46;;;;;;;30.90;14.30;;;;;;;;;;5095594;28;20194;-67
2022/04/04 08:27:13;;;;;;;24.33;13.40;;;;;;;;;;5095222;28;20194;-68
2022/04/04 08:29:40;;;;;;;26.37;14.60;;;;;;;;;;5094789;28;20230;-67
2022/04/04 08:32:08;;;;;;;30.90;14.67;;;;;;;;;;5095050;28;20206;-67
2022/04/04 08:34:36;;;;;;;22.77;13.07;;;;;;;;;;5095813;28;20198;-67
2022/04/04 08:37:03;;;;;;;29.73;14.73;;;;;;;;;;5095056;28;20203;-68
2022/04/04 08:39:30;;;;;;;38.50;18.83;;;;;;;;;;5095083;28;20271;-67
2022/04/04 08:41:57;;;;;;;39.33;17.37;;;;;;;;;;5094890;28;20218;-67
2022/04/04 08:44:24;;;;;;;27.37;14.23;;;;;;;;;;5094941;28;20203;-67
2022/04/04 08:46:52;;;;;;;27.70;14.77;;;;;;;;;;5094687;28;20206;-67
2022/04/04 08:49:19;;;;;;;25.63;14.73;;;;;;;;;;5097801;28;20195;-67
2022/04/04 08:51:49;;;;;;;27.10;15.23;;;;;;;;;;5099140;28;20210;-67
2022/04/04 08:54:16;;;;;;;26.07;14.47;;;;;;;;;;5098906;28;20287;-67
2022/04/04 08:56:44;;;;;;;98.43;44.27;;;;;;;;;;5098962;28;20648;-67
2022/04/04 08:59:11;;;;;;;74.50;37.33;;;;;;;;;;5099137;28;20195;-67
2022/04/04 09:01:38;;;;;;;32.77;17.53;;;;;;;;;;5099212;28;20194;-67
2022/04/04 09:04:05;;;;;;;29.17;16.13;;;;;;;;;;5098647;28;20216;-67
2022/04/04 09:06:55;;;;;;;31.90;17.27;;;;;;;;;;5098924;28;20206;-67
2022/04/04 09:09:40;;;;;;;31.90;15.97;;;;;;;;;;5099089;28;20187;-67
2022/04/04 09:12:10;;;;;;;28.57;16.53;;;;;;;;;;5098908;28;20174;-67
2022/04/04 09:14:46;;;;;;;28.47;16.10;;;;;;;;;;5098723;28;20206;-67
2022/04/04 09:17:15;;;;;;;26.10;15.87;;;;;;;;;;5098787;28;20251;-67
2022/04/04 09:19:43;;;;;;;53.83;27.13;;;;;;;;;;5098647;28;20199;-67
2022/04/04 09:22:12;;;;;;;60.93;34.10;;;;;;;;;;5098521;28;20264;-67
2022/04/04 09:24:43;;;;;;;27.67;16.70;;;;;;;;;;5098523;28;20202;-67
2022/04/04 09:27:12;;;;;;;31.50;20.77;;;;;;;;;;5098653;28;20625;-67
2022/04/04 09:29:45;;;;;;;27.53;16.20;;;;;;;;;;5098317;28;20235;-67
2022/04/04 09:32:15;;;;;;;32.47;17.43;;;;;;;;;;5098374;28;20209;-67
2022/04/04 09:34:54;;;;;;;30.10;16.40;;;;;;;;;;5098205;28;20317;-67
2022/04/04 09:37:23;;;;;;;29.03;16.33;;;;;;;;;;5098073;28;20579;-67
2022/04/04 09:39:51;;;;;;;33.40;17.60;;;;;;;;;;5098288;28;20579;-67
2022/04/04 09:42:39;;;;;;;35.23;18.40;;;;;;;;;;5098416;28;20198;-66
2022/04/04 09:45:10;;;;;;;26.60;16.23;;;;;;;;;;5098133;28;20205;-66
2022/04/04 09:47:45;;;;;;;40.73;18.93;;;;;;;;;;5098419;28;20222;-66
2022/04/04 09:50:32;;;;;;;30.17;18.00;;;;;;;;;;5097892;28;20205;-66
2022/04/04 09:53:00;;;;;;;28.30;17.83;;;;;;;;;;5097660;28;20724;-66
2022/04/04 09:55:35;;;;;;;28.97;18.67;;;;;;;;;;5097849;28;20268;-66
2022/04/04 09:58:15;;;;;;;34.20;18.97;;;;;;;;;;5097740;28;20298;-66
2022/04/04 10:00:48;;;;;;;102.97;49.57;;;;;;;;;;5096656;28;20217;-66
2022/04/04 10:03:17;;;;;;;51.80;29.23;;;;;;;;;;5097746;28;20203;-66
2022/04/04 10:05:53;;;;;;;37.93;22.17;;;;;;;;;;5097597;28;20652;-66
2022/04/04 10:08:24;;;;;;;35.50;21.50;;;;;;;;;;5097669;28;20210;-66
2022/04/04 10:10:53;;;;;;;29.23;18.73;;;;;;;;;;5098101;28;20203;-66
2022/04/04 10:13:21;;;;;;;32.57;20.07;;;;;;;;;;5097608;28;20225;-66
2022/04/04 10:15:50;;;;;;;39.93;21.43;;;;;;;;;;5097210;28;20227;-66
2022/04/04 10:18:18;;;;;;;32.13;20.47;;;;;;;;;;5097246;28;20554;-65
2022/04/04 10:20:56;;;;;;;55.50;27.57;;;;;;;;;;5097451;28;20248;-65
2022/04/04 10:23:25;;;;;;;142.77;78.93;;;;;;;;;;5097209;28;20635;-65
2022/04/04 10:25:53;;;;;;;74.13;35.73;;;;;;;;;;5096472;28;20550;-64
2022/04/04 10:28:31;;;;;;;46.90;29.50;;;;;;;;;;5096273;28;20629;-64
2022/04/04 10:31:00;;;;;;;53.57;33.80;;;;;;;;;;5097234;28;20214;-64
2022/04/04 10:33:33;;;;;;;45.33;30.60;;;;;;;;;;5097687;28;20213;-64
2022/04/04 10:36:04;;;;;;;50.23;30.77;;;;;;;;;;5096357;28;20209;-64
2022/04/04 10:38:33;;;;;;;56.90;34.53;;;;;;;;;;5097381;28;20237;-64
2022/04/04 10:41:07;;;;;;;54.17;33.83;;;;;;;;;;5097253;28;20226;-64
2022/04/04 10:43:36;;;;;;;87.23;46.93;;;;;;;;;;5097065;28;20213;-64
2022/04/04 10:46:11;;;;;;;94.90;54.63;;;;;;;;;;5097001;28;20195;-64
2022/04/04 10:48:41;;;;;;;67.90;47.30;;;;;;;;;;5097129;28;20191;-65
2022/04/04 10:51:18;;;;;;;52.70;33.20;;;;;;;;;;5097012;28;20285;-65
2022/04/04 10:53:53;;;;;;;44.30;30.23;;;;;;;;;;5096448;28;20233;-65
2022/04/04 10:56:25;;;;;;;46.23;31.00;;;;;;;;;;5096598;28;20224;-65
2022/04/04 10:58:53;;;;;;;41.47;27.90;;;;;;;;;;5096846;28;20187;-65
2022/04/04 11:01:22;;;;;;;43.37;30.10;;;;;;;;;;5095496;28;20640;-65
2022/04/04 11:03:52;;;;;;;42.50;27.57;;;;;;;;;;5096650;28;20207;-65
2022/04/04 11:09:33;;;;;;;53.83;34.47;;;;;;;;;;5096839;28;20228;-65
2022/04/04 11:12:00;;;;;;;49.50;31.40;;;;;;;;;;5096370;28;20271;-65
2022/04/04 11:14:27;;;;;;;43.43;28.70;;;;;;;;;;5096371;28;20222;-65
2022/04/04 11:17:06;;;;;;;36.87;26.90;;;;;;;;;;5096087;28;20206;-65
2022/04/04 11:19:44;;;;;;;38.13;26.03;;;;;;;;;;5096557;28;20202;-65
2022/04/04 11:22:13;;;;;;;40.50;25.90;;;;;;;;;;5096172;28;20202;-65
2022/04/04 11:24:42;;;;;;;37.40;24.23;;;;;;;;;;5096142;28;20206;-65
2022/04/04 11:27:10;;;;;;;40.77;25.37;;;;;;;;;;5095975;28;20221;-66
2022/04/04 11:29:40;;;;;;;42.30;26.73;;;;;;;;;;5095697;28;20227;-66
2022/04/04 11:32:08;;;;;;;55.23;33.30;;;;;;;;;;5096210;28;20206;-66
2022/04/04 11:34:36;;;;;;;35.70;23.77;;;;;;;;;;5095786;28;20661;-66
2022/04/04 11:37:04;;;;;;;34.93;24.63;;;;;;;;;;5096103;28;20505;-66
2022/04/04 11:39:32;;;;;;;67.20;30.27;;;;;;;;;;5095944;28;20255;-66
2022/04/04 11:42:07;;;;;;;33.30;24.30;;;;;;;;;;5095671;28;20617;-65
2022/04/04 11:44:37;;;;;;;35.67;24.23;;;;;;;;;;5094846;28;20740;-66
2022/04/04 11:47:07;;;;;;;31.53;23.73;;;;;;;;;;5096006;28;20195;-66
2022/04/04 11:49:39;;;;;;;36.33;22.77;;;;;;;;;;5095807;28;20195;-65
2022/04/04 11:52:07;;;;;;;35.70;23.40;;;;;;;;;;5095498;28;20532;-66
2022/04/04 11:54:49;;;;;;;81.87;42.50;;;;;;;;;;5096311;28;20295;-65
2022/04/04 11:57:17;;;;;;;33.40;21.47;;;;;;;;;;5095724;28;20191;-65
2022/04/04 11:59:47;;;;;;;35.33;22.53;;;;;;;;;;5095926;28;20213;-65
2022/04/04 12:02:14;;;;;;;33.13;22.10;;;;;;;;;;5095540;28;20194;-66
2022/04/04 12:04:43;;;;;;;33.37;20.97;;;;;;;;;;5095515;28;20207;-65
2022/04/04 12:07:10;;;;;;;28.37;20.47;;;;;;;;;;5095474;28;20233;-66
2022/04/04 12:09:38;;;;;;;29.43;21.20;;;;;;;;;;5095326;28;20259;-66
2022/04/04 12:12:11;;;;;;;39.37;22.47;;;;;;;;;;5095438;28;20575;-66
2022/04/04 12:14:40;;;;;;;35.87;21.57;;;;;;;;;;5095432;28;20237;-66
2022/04/04 12:17:08;;;;;;;35.27;22.87;;;;;;;;;;5095090;28;20224;-66
2022/04/04 12:19:46;;;;;;;41.73;25.60;;;;;;;;;;5095049;28;20198;-66
2022/04/04 12:25:04;;;;;;;30.10;21.40;;;;;;;;;;5094869;28;20632;-65
2022/04/04 12:27:33;;;;;;;33.40;22.00;;;;;;;;;;5094915;28;20191;-66
2022/04/04 12:30:02;;;;;;;32.03;21.57;;;;;;;;;;5094926;28;20339;-66
2022/04/04 12:32:36;;;;;;;30.90;21.20;;;;;;;;;;5094870;28;20207;-66
2022/04/04 12:35:09;;;;;;;35.80;22.80;;;;;;;;;;5094898;28;20222;-66
2022/04/04 12:37:39;;;;;;;36.37;24.40;;;;;;;;;;5095373;28;20378;-66
2022/04/04 12:40:18;;;;;;;53.47;28.27;;;;;;;;;;5094724;28;20202;-65
2022/04/04 12:42:48;;;;;;;57.00;28.37;;;;;;;;;;5104524;27;20221;-66
2022/04/04 12:45:18;;;;;;;34.57;23.30;;;;;;;;;;5111571;28;20222;-69
2022/04/04 12:48:09;;;;;;;34.10;23.40;;;;;;;;;;5106967;28;20551;-68
2022/04/04 12:50:38;;;;;;;31.93;21.17;;;;;;;;;;5110240;28;20238;-68
2022/04/04 12:53:07;;;;;;;33.33;22.27;;;;;;;;;;5109042;28;20813;-69
2022/04/04 12:55:35;;;;;;;29.87;21.50;;;;;;;;;;5108690;28;20328;-69
2022/04/04 12:58:23;;;;;;;33.03;21.83;;;;;;;;;;5106857;28;20267;-68
2022/04/04 13:00:51;;;;;;;136.07;59.63;;;;;;;;;;5110717;28;20226;-75
2022/04/04 13:03:25;;;;;;;35.23;23.47;;;;;;;;;;5112679;27;20244;-75
2022/04/04 13:05:57;;;;;;;35.17;22.57;;;;;;;;;;5101675;28;20297;-75
2022/04/04 13:08:27;;;;;;;31.37;22.13;;;;;;;;;;5113167;27;20237;-77
2022/04/04 13:11:05;;;;;;;32.00;20.87;;;;;;;;;;5112910;28;20568;-74
2022/04/04 13:13:34;;;;;;;26.93;19.80;;;;;;;;;;5110768;28;20285;-76
2022/04/04 13:16:02;;;;;;;29.73;20.67;;;;;;;;;;5113601;28;20245;-74
2022/04/04 13:18:47;;;;;;;32.47;21.60;;;;;;;;;;5110582;27;20544;-76
2022/04/04 13:21:14;;;;;;;29.23;19.77;;;;;;;;;;5113273;28;20592;-75
2022/04/04 13:23:41;;;;;;;37.53;23.27;;;;;;;;;;5112460;28;20309;-74
2022/04/04 13:26:09;;;;;;;31.73;20.23;;;;;;;;;;5109435;28;20646;-74
2022/04/04 13:28:36;;;;;;;32.33;20.70;;;;;;;;;;5107469;28;20241;-73
2022/04/04 13:31:03;;;;;;;31.30;20.43;;;;;;;;;;5112848;28;20290;-75
2022/04/04 13:33:30;;;;;;;28.60;19.83;;;;;;;;;;5112390;27;20633;-74
2022/04/04 13:35:57;;;;;;;31.23;19.73;;;;;;;;;;5115933;28;20241;-73
2022/04/04 13:38:24;;;;;;;27.43;18.57;;;;;;;;;;5116537;28;20218;-75
2022/04/04 13:40:53;;;;;;;30.40;20.10;;;;;;;;;;5116409;27;20283;-74
2022/04/04 13:43:20;;;;;;;105.07;47.23;;;;;;;;;;5115594;28;21039;-72
2022/04/04 13:45:48;;;;;;;89.33;40.00;;;;;;;;;;5113536;28;20222;-71
2022/04/04 13:48:15;;;;;;;27.67;19.30;;;;;;;;;;5117279;28;20221;-76
2022/04/04 13:50:42;;;;;;;29.93;19.20;;;;;;;;;;5130889;27;20226;-73
2022/04/04 13:53:12;;;;;;;26.37;18.93;;;;;;;;;;5138335;27;20225;-71
2022/04/04 13:55:40;;;;;;;27.90;18.53;;;;;;;;;;5123958;27;20241;-66
2022/04/04 13:58:07;;;;;;;25.73;18.40;;;;;;;;;;5111907;28;20218;-65
2022/04/04 14:00:38;;;;;;;25.77;18.30;;;;;;;;;;5096821;28;20218;-62
2022/04/04 14:03:05;;;;;;;26.00;17.93;;;;;;;;;;5096825;28;20693;-65
2022/04/04 14:05:32;;;;;;;31.40;20.43;;;;;;;;;;5107207;28;20229;-63
2022/04/04 14:08:13;;;;;;;34.37;19.87;;;;;;;;;;5102253;28;20214;-63
2022/04/04 14:10:42;;;;;;;26.53;17.40;;;;;;;;;;5100820;28;20234;-69
2022/04/04 14:13:09;;;;;;;24.33;16.83;;;;;;;;;;5116652;27;20230;-66
2022/04/04 14:15:37;;;;;;;26.73;17.13;;;;;;;;;;5116738;27;20638;-66
2022/04/04 14:18:05;;;;;;;26.73;16.40;;;;;;;;;;5116662;28;20242;-69
2022/04/04 14:20:32;;;;;;;26.30;16.87;;;;;;;;;;5115534;27;20248;-68
2022/04/04 14:23:00;;;;;;;24.27;16.00;;;;;;;;;;5116965;28;20294;-70
2022/04/04 14:25:26;;;;;;;43.07;22.30;;;;;;;;;;5116994;27;20226;-66
2022/04/04 14:27:54;;;;;;;93.03;47.70;;;;;;;;;;5113826;28;20222;-69
2022/04/04 14:30:23;;;;;;;23.90;16.60;;;;;;;;;;5095936;28;20242;-66
2022/04/04 14:32:49;;;;;;;22.37;14.93;;;;;;;;;;5096075;28;20227;-66
2022/04/04 14:35:16;;;;;;;18.87;13.37;;;;;;;;;;5096130;28;20246;-66
2022/04/04 14:37:44;;;;;;;29.13;15.43;;;;;;;;;;5096128;28;20230;-64
2022/04/04 14:40:12;;;;;;;21.37;14.50;;;;;;;;;;5095960;28;20226;-62
2022/04/04 14:42:41;;;;;;;19.50;13.23;;;;;;;;;;5095579;28;20238;-62